sensor_id;sensor_type;location;lat;lon;timestamp;temperature;humidity
66337;SHT30;53139;45.576;5.304;2023-04-03T00:02:35;7.26;98.79
66337;SHT30;53139;45.576;5.304;2023-04-03T00:05:35;7.27;98.26
66337;SHT30;53139;45.576;5.304;2023-04-03T00:08:37;7.27;98.74
66337;SHT30;53139;45.576;5.304;2023-04-03T00:11:37;7.22;98.73
66337;SHT30;53139;45.576;5.304;2023-04-03T00:14:38;7.26;98.61
66337;SHT30;53139;45.576;5.304;2023-04-03T00:17:38;7.28;98.79
66337;SHT30;53139;45.576;5.304;2023-04-03T00:20:39;7.24;98.40
66337;SHT30;53139;45.576;5.304;2023-04-03T00:23:39;7.24;98.56
66337;SHT30;53139;45.576;5.304;2023-04-03T00:26:39;7.22;98.54
66337;SHT30;53139;45.576;5.304;2023-04-03T00:29:40;7.23;98.78
66337;SHT30;53139;45.576;5.304;2023-04-03T00:32:41;7.23;98.71
66337;SHT30;53139;45.576;5.304;2023-04-03T00:35:41;7.19;98.50
66337;SHT30;53139;45.576;5.304;2023-04-03T00:38:42;7.20;98.88
66337;SHT30;53139;45.576;5.304;2023-04-03T00:41:42;7.19;98.87
66337;SHT30;53139;45.576;5.304;2023-04-03T00:47:46;7.17;98.97
66337;SHT30;53139;45.576;5.304;2023-04-03T00:50:47;7.20;98.79
66337;SHT30;53139;45.576;5.304;2023-04-03T00:53:55;7.17;98.48
66337;SHT30;53139;45.576;5.304;2023-04-03T00:56:57;7.16;98.59
66337;SHT30;53139;45.576;5.304;2023-04-03T01:00:03;7.13;98.57
66337;SHT30;53139;45.576;5.304;2023-04-03T01:03:04;7.16;98.64
66337;SHT30;53139;45.576;5.304;2023-04-03T01:06:05;7.20;98.82
66337;SHT30;53139;45.576;5.304;2023-04-03T01:09:06;7.19;98.81
66337;SHT30;53139;45.576;5.304;2023-04-03T01:12:27;7.12;98.79
66337;SHT30;53139;45.576;5.304;2023-04-03T01:15:28;7.17;98.51
66337;SHT30;53139;45.576;5.304;2023-04-03T01:18:37;7.19;97.99
66337;SHT30;53139;45.576;5.304;2023-04-03T01:25:27;7.16;98.12
66337;SHT30;53139;45.576;5.304;2023-04-03T01:28:30;7.14;98.53
66337;SHT30;53139;45.576;5.304;2023-04-03T01:31:49;7.19;98.09
66337;SHT30;53139;45.576;5.304;2023-04-03T01:34:49;7.19;97.52
66337;SHT30;53139;45.576;5.304;2023-04-03T01:37:49;7.17;97.80
66337;SHT30;53139;45.576;5.304;2023-04-03T01:40:50;7.19;98.15
66337;SHT30;53139;45.576;5.304;2023-04-03T01:43:51;7.20;97.07
66337;SHT30;53139;45.576;5.304;2023-04-03T01:46:51;7.14;97.25
66337;SHT30;53139;45.576;5.304;2023-04-03T01:49:51;7.20;98.28
66337;SHT30;53139;45.576;5.304;2023-04-03T01:52:52;7.19;97.76
66337;SHT30;53139;45.576;5.304;2023-04-03T01:55:52;7.19;97.80
66337;SHT30;53139;45.576;5.304;2023-04-03T01:58:52;7.17;97.64
66337;SHT30;53139;45.576;5.304;2023-04-03T02:01:53;7.17;97.42
66337;SHT30;53139;45.576;5.304;2023-04-03T02:04:53;7.16;97.55
66337;SHT30;53139;45.576;5.304;2023-04-03T02:07:54;7.19;97.33
66337;SHT30;53139;45.576;5.304;2023-04-03T02:10:55;7.14;97.57
66337;SHT30;53139;45.576;5.304;2023-04-03T02:13:55;7.17;97.61
66337;SHT30;53139;45.576;5.304;2023-04-03T02:16:56;7.13;97.43
66337;SHT30;53139;45.576;5.304;2023-04-03T02:19:56;7.14;97.75
66337;SHT30;53139;45.576;5.304;2023-04-03T02:22:56;7.17;98.03
66337;SHT30;53139;45.576;5.304;2023-04-03T02:26:08;7.19;97.69
66337;SHT30;53139;45.576;5.304;2023-04-03T02:29:09;7.24;97.52
66337;SHT30;53139;45.576;5.304;2023-04-03T02:32:09;7.19;97.84
66337;SHT30;53139;45.576;5.304;2023-04-03T02:35:10;7.16;97.69
66337;SHT30;53139;45.576;5.304;2023-04-03T02:38:11;7.16;97.91
66337;SHT30;53139;45.576;5.304;2023-04-03T02:41:12;7.16;98.11
66337;SHT30;53139;45.576;5.304;2023-04-03T02:44:13;7.17;97.78
66337;SHT30;53139;45.576;5.304;2023-04-03T02:47:13;7.22;97.47
66337;SHT30;53139;45.576;5.304;2023-04-03T02:50:14;7.22;97.70
66337;SHT30;53139;45.576;5.304;2023-04-03T02:53:14;7.19;97.64
66337;SHT30;53139;45.576;5.304;2023-04-03T02:56:15;7.22;97.57
66337;SHT30;53139;45.576;5.304;2023-04-03T02:59:17;7.22;97.63
66337;SHT30;53139;45.576;5.304;2023-04-03T03:02:17;7.17;97.45
66337;SHT30;53139;45.576;5.304;2023-04-03T03:05:18;7.22;97.70
66337;SHT30;53139;45.576;5.304;2023-04-03T03:08:18;7.17;97.56
66337;SHT30;53139;45.576;5.304;2023-04-03T03:11:20;7.17;97.48
66337;SHT30;53139;45.576;5.304;2023-04-03T03:14:21;7.17;97.48
66337;SHT30;53139;45.576;5.304;2023-04-03T03:17:21;7.20;97.43
66337;SHT30;53139;45.576;5.304;2023-04-03T03:20:21;7.23;97.31
66337;SHT30;53139;45.576;5.304;2023-04-03T03:23:23;7.22;97.90
66337;SHT30;53139;45.576;5.304;2023-04-03T03:26:24;7.24;97.66
66337;SHT30;53139;45.576;5.304;2023-04-03T03:29:25;7.23;97.23
66337;SHT30;53139;45.576;5.304;2023-04-03T03:32:25;7.22;97.84
66337;SHT30;53139;45.576;5.304;2023-04-03T03:35:25;7.26;97.65
66337;SHT30;53139;45.576;5.304;2023-04-03T03:38:26;7.19;97.47
66337;SHT30;53139;45.576;5.304;2023-04-03T03:41:26;7.19;98.01
66337;SHT30;53139;45.576;5.304;2023-04-03T03:44:27;7.17;97.59
66337;SHT30;53139;45.576;5.304;2023-04-03T03:47:29;7.17;97.70
66337;SHT30;53139;45.576;5.304;2023-04-03T03:50:29;7.14;97.84
66337;SHT30;53139;45.576;5.304;2023-04-03T03:53:30;7.12;97.87
66337;SHT30;53139;45.576;5.304;2023-04-03T03:56:30;7.09;98.49
66337;SHT30;53139;45.576;5.304;2023-04-03T03:59:31;7.09;98.67
66337;SHT30;53139;45.576;5.304;2023-04-03T04:02:31;7.03;98.53
66337;SHT30;53139;45.576;5.304;2023-04-03T04:05:33;7.05;99.08
66337;SHT30;53139;45.576;5.304;2023-04-03T04:08:33;7.05;99.15
66337;SHT30;53139;45.576;5.304;2023-04-03T04:11:34;7.00;99.21
66337;SHT30;53139;45.576;5.304;2023-04-03T04:14:34;6.99;99.26
66337;SHT30;53139;45.576;5.304;2023-04-03T04:17:36;7.00;99.18
66337;SHT30;53139;45.576;5.304;2023-04-03T04:20:36;7.03;99.33
66337;SHT30;53139;45.576;5.304;2023-04-03T04:23:36;7.05;99.30
66337;SHT30;53139;45.576;5.304;2023-04-03T04:26:37;7.02;99.36
66337;SHT30;53139;45.576;5.304;2023-04-03T04:29:37;6.99;99.49
66337;SHT30;53139;45.576;5.304;2023-04-03T04:32:38;7.07;99.04
66337;SHT30;53139;45.576;5.304;2023-04-03T04:35:38;7.02;99.09
66337;SHT30;53139;45.576;5.304;2023-04-03T04:38:39;7.05;99.06
66337;SHT30;53139;45.576;5.304;2023-04-03T04:41:39;7.07;99.04
66337;SHT30;53139;45.576;5.304;2023-04-03T04:44:40;7.00;98.96
66337;SHT30;53139;45.576;5.304;2023-04-03T04:47:40;7.02;99.02
66337;SHT30;53139;45.576;5.304;2023-04-03T04:50:41;7.03;99.06
66337;SHT30;53139;45.576;5.304;2023-04-03T04:53:41;7.06;98.83
66337;SHT30;53139;45.576;5.304;2023-04-03T04:56:42;7.05;98.63
66337;SHT30;53139;45.576;5.304;2023-04-03T04:59:43;7.06;98.40
66337;SHT30;53139;45.576;5.304;2023-04-03T05:02:43;7.06;98.52
66337;SHT30;53139;45.576;5.304;2023-04-03T05:05:43;7.10;98.31
66337;SHT30;53139;45.576;5.304;2023-04-03T05:08:44;7.10;98.54
66337;SHT30;53139;45.576;5.304;2023-04-03T05:11:44;7.14;98.05
66337;SHT30;53139;45.576;5.304;2023-04-03T05:14:45;7.09;98.34
66337;SHT30;53139;45.576;5.304;2023-04-03T05:17:45;7.13;97.97
66337;SHT30;53139;45.576;5.304;2023-04-03T05:20:48;7.12;97.94
66337;SHT30;53139;45.576;5.304;2023-04-03T05:23:49;7.10;97.75
66337;SHT30;53139;45.576;5.304;2023-04-03T05:26:49;7.10;97.71
66337;SHT30;53139;45.576;5.304;2023-04-03T05:29:50;7.12;98.01
66337;SHT30;53139;45.576;5.304;2023-04-03T05:32:50;7.16;97.94
66337;SHT30;53139;45.576;5.304;2023-04-03T05:35:50;7.14;97.49
66337;SHT30;53139;45.576;5.304;2023-04-03T05:38:52;7.19;97.70
66337;SHT30;53139;45.576;5.304;2023-04-03T05:41:52;7.23;97.52
66337;SHT30;53139;45.576;5.304;2023-04-03T05:44:52;7.26;97.39
66337;SHT30;53139;45.576;5.304;2023-04-03T05:47:53;7.27;97.17
66337;SHT30;53139;45.576;5.304;2023-04-03T05:50:59;7.27;97.31
66337;SHT30;53139;45.576;5.304;2023-04-03T05:54:29;7.33;97.32
66337;SHT30;53139;45.576;5.304;2023-04-03T05:57:48;7.33;97.09
66337;SHT30;53139;45.576;5.304;2023-04-03T06:00:55;7.37;96.80
66337;SHT30;53139;45.576;5.304;2023-04-03T06:04:24;7.41;96.96
66337;SHT30;53139;45.576;5.304;2023-04-03T06:07:56;7.44;97.49
66337;SHT30;53139;45.576;5.304;2023-04-03T06:10:57;7.48;97.38
66337;SHT30;53139;45.576;5.304;2023-04-03T06:14:10;7.51;96.73
66337;SHT30;53139;45.576;5.304;2023-04-03T06:17:17;7.54;96.92
66337;SHT30;53139;45.576;5.304;2023-04-03T06:20:41;7.58;96.74
66337;SHT30;53139;45.576;5.304;2023-04-03T06:23:53;7.62;96.73
66337;SHT30;53139;45.576;5.304;2023-04-03T06:27:10;7.65;97.30
66337;SHT30;53139;45.576;5.304;2023-04-03T06:30:42;7.68;97.28
66337;SHT30;53139;45.576;5.304;2023-04-03T06:34:23;7.71;96.96
66337;SHT30;53139;45.576;5.304;2023-04-03T06:37:58;7.72;96.80
66337;SHT30;53139;45.576;5.304;2023-04-03T06:41:16;7.82;97.23
66337;SHT30;53139;45.576;5.304;2023-04-03T06:44:17;7.82;97.00
66337;SHT30;53139;45.576;5.304;2023-04-03T06:47:31;7.90;97.24
66337;SHT30;53139;45.576;5.304;2023-04-03T06:50:36;7.92;97.22
66337;SHT30;53139;45.576;5.304;2023-04-03T06:53:54;7.95;97.32
66337;SHT30;53139;45.576;5.304;2023-04-03T06:57:10;7.95;97.05
66337;SHT30;53139;45.576;5.304;2023-04-03T07:00:22;7.99;96.98
66337;SHT30;53139;45.576;5.304;2023-04-03T07:03:31;8.06;97.05
66337;SHT30;53139;45.576;5.304;2023-04-03T07:07:05;8.13;97.54
66337;SHT30;53139;45.576;5.304;2023-04-03T07:10:57;8.24;97.61
66337;SHT30;53139;45.576;5.304;2023-04-03T07:14:35;8.22;97.74
66337;SHT30;53139;45.576;5.304;2023-04-03T07:18:08;8.30;97.74
66337;SHT30;53139;45.576;5.304;2023-04-03T07:21:32;8.24;97.79
66337;SHT30;53139;45.576;5.304;2023-04-03T07:24:41;8.31;97.67
66337;SHT30;53139;45.576;5.304;2023-04-03T07:27:53;8.30;97.51
66337;SHT30;53139;45.576;5.304;2023-04-03T07:31:11;8.37;97.75
66337;SHT30;53139;45.576;5.304;2023-04-03T07:34:39;8.40;97.31
66337;SHT30;53139;45.576;5.304;2023-04-03T07:37:42;8.33;97.18
66337;SHT30;53139;45.576;5.304;2023-04-03T07:40:47;8.34;97.20
66337;SHT30;53139;45.576;5.304;2023-04-03T07:44:00;8.45;96.94
66337;SHT30;53139;45.576;5.304;2023-04-03T07:47:48;8.48;96.61
66337;SHT30;53139;45.576;5.304;2023-04-03T07:51:31;8.51;96.04
66337;SHT30;53139;45.576;5.304;2023-04-03T07:55:14;8.64;95.95
66337;SHT30;53139;45.576;5.304;2023-04-03T07:58:38;8.83;96.24
66337;SHT30;53139;45.576;5.304;2023-04-03T08:01:45;8.73;95.59
66337;SHT30;53139;45.576;5.304;2023-04-03T08:05:04;8.62;95.81
66337;SHT30;53139;45.576;5.304;2023-04-03T08:08:11;8.57;96.24
66337;SHT30;53139;45.576;5.304;2023-04-03T08:11:21;8.26;96.29
66337;SHT30;53139;45.576;5.304;2023-04-03T08:14:45;8.26;96.55
66337;SHT30;53139;45.576;5.304;2023-04-03T08:18:14;8.40;95.87
66337;SHT30;53139;45.576;5.304;2023-04-03T08:22:08;8.34;95.76
66337;SHT30;53139;45.576;5.304;2023-04-03T08:25:57;8.23;95.30
66337;SHT30;53139;45.576;5.304;2023-04-03T08:29:43;8.30;95.26
66337;SHT30;53139;45.576;5.304;2023-04-03T08:33:24;8.57;94.67
66337;SHT30;53139;45.576;5.304;2023-04-03T08:36:59;8.62;94.71
66337;SHT30;53139;45.576;5.304;2023-04-03T08:40:45;8.48;93.73
66337;SHT30;53139;45.576;5.304;2023-04-03T08:48:00;8.69;92.87
66337;SHT30;53139;45.576;5.304;2023-04-03T08:51:26;8.90;92.36
66337;SHT30;53139;45.576;5.304;2023-04-03T08:54:33;8.97;92.28
66337;SHT30;53139;45.576;5.304;2023-04-03T08:57:43;8.93;92.42
66337;SHT30;53139;45.576;5.304;2023-04-03T09:00:55;8.89;92.56
66337;SHT30;53139;45.576;5.304;2023-04-03T09:04:00;8.65;92.68
66337;SHT30;53139;45.576;5.304;2023-04-03T09:07:08;8.72;92.43
66337;SHT30;53139;45.576;5.304;2023-04-03T09:10:14;8.85;93.01
66337;SHT30;53139;45.576;5.304;2023-04-03T09:13:33;8.93;92.50
66337;SHT30;53139;45.576;5.304;2023-04-03T09:20:02;8.88;92.15
66337;SHT30;53139;45.576;5.304;2023-04-03T09:23:19;9.10;92.43
66337;SHT30;53139;45.576;5.304;2023-04-03T09:26:51;8.92;91.90
66337;SHT30;53139;45.576;5.304;2023-04-03T09:29:55;8.96;92.63
66337;SHT30;53139;45.576;5.304;2023-04-03T09:32:57;8.85;92.13
66337;SHT30;53139;45.576;5.304;2023-04-03T09:35:57;8.76;91.69
66337;SHT30;53139;45.576;5.304;2023-04-03T09:39:07;8.55;91.72
66337;SHT30;53139;45.576;5.304;2023-04-03T09:42:35;8.64;92.32
66337;SHT30;53139;45.576;5.304;2023-04-03T09:46:26;8.75;91.73
66337;SHT30;53139;45.576;5.304;2023-04-03T09:53:59;9.26;91.26
66337;SHT30;53139;45.576;5.304;2023-04-03T09:57:38;9.03;91.34
66337;SHT30;53139;45.576;5.304;2023-04-03T10:01:27;9.05;91.25
66337;SHT30;53139;45.576;5.304;2023-04-03T10:04:43;9.16;90.49
66337;SHT30;53139;45.576;5.304;2023-04-03T10:07:50;9.09;90.80
66337;SHT30;53139;45.576;5.304;2023-04-03T10:11:13;8.95;90.22
66337;SHT30;53139;45.576;5.304;2023-04-03T10:14:19;9.07;91.23
66337;SHT30;53139;45.576;5.304;2023-04-03T10:20:35;8.85;90.29
66337;SHT30;53139;45.576;5.304;2023-04-03T10:23:47;8.73;91.05
66337;SHT30;53139;45.576;5.304;2023-04-03T11:03:45;8.86;89.69
66337;SHT30;53139;45.576;5.304;2023-04-03T11:06:50;8.71;90.28
66337;SHT30;53139;45.576;5.304;2023-04-03T11:17:31;8.29;90.65
66337;SHT30;53139;45.576;5.304;2023-04-03T11:20:34;8.24;91.03
66337;SHT30;53139;45.576;5.304;2023-04-03T11:24:16;8.33;91.16
66337;SHT30;53139;45.576;5.304;2023-04-03T11:28:05;8.20;91.06
66337;SHT30;53139;45.576;5.304;2023-04-03T11:31:55;8.16;91.12
66337;SHT30;53139;45.576;5.304;2023-04-03T11:35:01;8.05;91.03
66337;SHT30;53139;45.576;5.304;2023-04-03T11:38:10;8.20;90.95
66337;SHT30;53139;45.576;5.304;2023-04-03T11:41:29;8.06;90.81
66337;SHT30;53139;45.576;5.304;2023-04-03T11:44:36;8.06;90.46
66337;SHT30;53139;45.576;5.304;2023-04-03T11:47:48;8.05;90.45
66337;SHT30;53139;45.576;5.304;2023-04-03T11:50:49;8.38;90.77
66337;SHT30;53139;45.576;5.304;2023-04-03T11:53:50;8.22;90.10
66337;SHT30;53139;45.576;5.304;2023-04-03T11:56:51;8.50;91.22
66337;SHT30;53139;45.576;5.304;2023-04-03T11:59:55;8.06;89.58
66337;SHT30;53139;45.576;5.304;2023-04-03T12:02:59;8.13;90.38
66337;SHT30;53139;45.576;5.304;2023-04-03T12:12:56;8.02;90.06
66337;SHT30;53139;45.576;5.304;2023-04-03T12:15:58;8.06;90.11
66337;SHT30;53139;45.576;5.304;2023-04-03T12:22:17;8.03;90.01
66337;SHT30;53139;45.576;5.304;2023-04-03T12:25:47;7.93;90.87
66337;SHT30;53139;45.576;5.304;2023-04-03T12:28:51;8.00;90.22
66337;SHT30;53139;45.576;5.304;2023-04-03T12:39:01;8.27;89.66
66337;SHT30;53139;45.576;5.304;2023-04-03T12:42:46;8.22;89.87
66337;SHT30;53139;45.576;5.304;2023-04-03T12:46:03;8.17;89.40
66337;SHT30;53139;45.576;5.304;2023-04-03T12:49:14;8.37;89.66
66337;SHT30;53139;45.576;5.304;2023-04-03T12:52:45;8.57;89.09
66337;SHT30;53139;45.576;5.304;2023-04-03T12:55:44;8.45;88.71
66337;SHT30;53139;45.576;5.304;2023-04-03T12:58:45;8.42;88.58
66337;SHT30;53139;45.576;5.304;2023-04-03T13:02:01;8.42;88.90
66337;SHT30;53139;45.576;5.304;2023-04-03T13:05:08;8.29;88.35
66337;SHT30;53139;45.576;5.304;2023-04-03T13:08:12;8.20;88.76
66337;SHT30;53139;45.576;5.304;2023-04-03T13:11:16;8.30;88.69
66337;SHT30;53139;45.576;5.304;2023-04-03T13:14:21;8.30;88.02
66337;SHT30;53139;45.576;5.304;2023-04-03T13:17:22;8.52;87.90
66337;SHT30;53139;45.576;5.304;2023-04-03T13:20:30;8.40;87.92
66337;SHT30;53139;45.576;5.304;2023-04-03T13:23:35;8.67;88.38
66337;SHT30;53139;45.576;5.304;2023-04-03T13:26:36;8.76;87.86
66337;SHT30;53139;45.576;5.304;2023-04-03T13:29:38;8.83;87.46
66337;SHT30;53139;45.576;5.304;2023-04-03T13:32:43;9.09;87.41
66337;SHT30;53139;45.576;5.304;2023-04-03T13:35:45;9.35;87.09
66337;SHT30;53139;45.576;5.304;2023-04-03T13:38:58;9.44;85.96
66337;SHT30;53139;45.576;5.304;2023-04-03T13:42:02;9.48;86.02
66337;SHT30;53139;45.576;5.304;2023-04-03T13:45:24;9.67;85.77
66337;SHT30;53139;45.576;5.304;2023-04-03T13:48:45;9.81;85.40
66337;SHT30;53139;45.576;5.304;2023-04-03T13:51:45;10.07;84.81
66337;SHT30;53139;45.576;5.304;2023-04-03T13:54:51;10.00;84.33
66337;SHT30;53139;45.576;5.304;2023-04-03T14:01:09;10.05;84.63
66337;SHT30;53139;45.576;5.304;2023-04-03T14:07:37;10.02;84.01
66337;SHT30;53139;45.576;5.304;2023-04-03T14:10:38;10.20;84.71
66337;SHT30;53139;45.576;5.304;2023-04-03T14:13:40;10.24;84.39
66337;SHT30;53139;45.576;5.304;2023-04-03T14:16:44;10.09;83.48
66337;SHT30;53139;45.576;5.304;2023-04-03T14:19:45;10.00;83.92
66337;SHT30;53139;45.576;5.304;2023-04-03T14:22:46;10.00;85.22
66337;SHT30;53139;45.576;5.304;2023-04-03T14:25:47;10.10;83.91
66337;SHT30;53139;45.576;5.304;2023-04-03T14:28:53;9.96;84.23
66337;SHT30;53139;45.576;5.304;2023-04-03T14:31:53;9.95;84.06
66337;SHT30;53139;45.576;5.304;2023-04-03T14:34:55;10.07;83.92
66337;SHT30;53139;45.576;5.304;2023-04-03T14:37:57;9.99;82.79
66337;SHT30;53139;45.576;5.304;2023-04-03T14:40:58;10.18;83.06
66337;SHT30;53139;45.576;5.304;2023-04-03T14:43:59;10.36;83.59
66337;SHT30;53139;45.576;5.304;2023-04-03T14:47:00;10.32;82.33
66337;SHT30;53139;45.576;5.304;2023-04-03T14:50:04;10.43;82.09
66337;SHT30;53139;45.576;5.304;2023-04-03T14:53:05;10.38;82.43
66337;SHT30;53139;45.576;5.304;2023-04-03T14:56:38;10.41;83.42
66337;SHT30;53139;45.576;5.304;2023-04-03T15:00:22;10.26;84.34
66337;SHT30;53139;45.576;5.304;2023-04-03T15:04:21;10.16;83.63
66337;SHT30;53139;45.576;5.304;2023-04-03T15:08:26;9.83;83.31
66337;SHT30;53139;45.576;5.304;2023-04-03T15:12:19;9.74;84.09
66337;SHT30;53139;45.576;5.304;2023-04-03T15:15:45;9.78;83.28
66337;SHT30;53139;45.576;5.304;2023-04-03T15:19:17;9.90;82.78
66337;SHT30;53139;45.576;5.304;2023-04-03T15:23:19;9.85;82.06
66337;SHT30;53139;45.576;5.304;2023-04-03T15:43:30;10.10;81.07
66337;SHT30;53139;45.576;5.304;2023-04-03T15:59:57;10.12;79.49
66337;SHT30;53139;45.576;5.304;2023-04-03T16:07:47;10.41;79.65
66337;SHT30;53139;45.576;5.304;2023-04-03T16:11:01;10.05;79.31
66337;SHT30;53139;45.576;5.304;2023-04-03T16:14:21;9.85;80.46
66337;SHT30;53139;45.576;5.304;2023-04-03T16:17:54;9.71;80.56
66337;SHT30;53139;45.576;5.304;2023-04-03T16:24:46;9.74;80.48
66337;SHT30;53139;45.576;5.304;2023-04-03T16:27:47;9.72;78.78
66337;SHT30;53139;45.576;5.304;2023-04-03T16:31:00;9.59;78.50
66337;SHT30;53139;45.576;5.304;2023-04-03T16:34:01;9.69;78.71
66337;SHT30;53139;45.576;5.304;2023-04-03T16:37:01;9.65;79.53
66337;SHT30;53139;45.576;5.304;2023-04-03T16:40:03;9.69;79.15
66337;SHT30;53139;45.576;5.304;2023-04-03T16:43:11;9.78;78.82
66337;SHT30;53139;45.576;5.304;2023-04-03T16:46:17;9.77;77.81
66337;SHT30;53139;45.576;5.304;2023-04-03T16:49:24;9.65;76.78
66337;SHT30;53139;45.576;5.304;2023-04-03T16:52:24;9.44;76.95
66337;SHT30;53139;45.576;5.304;2023-04-03T16:55:25;9.28;76.06
66337;SHT30;53139;45.576;5.304;2023-04-03T16:58:25;9.16;76.60
66337;SHT30;53139;45.576;5.304;2023-04-03T17:01:26;9.14;76.00
66337;SHT30;53139;45.576;5.304;2023-04-03T17:04:26;9.10;75.95
66337;SHT30;53139;45.576;5.304;2023-04-03T17:07:26;9.05;76.04
66337;SHT30;53139;45.576;5.304;2023-04-03T17:10:27;8.93;76.14
66337;SHT30;53139;45.576;5.304;2023-04-03T17:13:28;8.88;74.42
66337;SHT30;53139;45.576;5.304;2023-04-03T17:16:33;8.76;74.77
66337;SHT30;53139;45.576;5.304;2023-04-03T17:19:36;8.71;74.38
66337;SHT30;53139;45.576;5.304;2023-04-03T17:22:37;8.64;74.81
66337;SHT30;53139;45.576;5.304;2023-04-03T17:25:38;8.60;74.51
66337;SHT30;53139;45.576;5.304;2023-04-03T17:28:38;8.54;73.73
66337;SHT30;53139;45.576;5.304;2023-04-03T17:31:40;8.51;74.85
66337;SHT30;53139;45.576;5.304;2023-04-03T17:34:41;8.48;73.58
66337;SHT30;53139;45.576;5.304;2023-04-03T17:37:41;8.45;73.44
66337;SHT30;53139;45.576;5.304;2023-04-03T17:40:44;8.40;74.41
66337;SHT30;53139;45.576;5.304;2023-04-03T17:43:45;8.27;75.25
66337;SHT30;53139;45.576;5.304;2023-04-03T17:46:45;8.27;75.25
66337;SHT30;53139;45.576;5.304;2023-04-03T17:49:46;8.27;75.43
66337;SHT30;53139;45.576;5.304;2023-04-03T17:52:46;8.19;74.81
66337;SHT30;53139;45.576;5.304;2023-04-03T17:55:46;8.12;75.34
66337;SHT30;53139;45.576;5.304;2023-04-03T17:58:48;8.09;75.17
66337;SHT30;53139;45.576;5.304;2023-04-03T18:01:48;8.02;75.45
66337;SHT30;53139;45.576;5.304;2023-04-03T18:04:51;7.92;75.99
66337;SHT30;53139;45.576;5.304;2023-04-03T18:07:52;7.92;74.98
66337;SHT30;53139;45.576;5.304;2023-04-03T18:10:53;7.79;75.84
66337;SHT30;53139;45.576;5.304;2023-04-03T18:13:56;7.83;75.38
66337;SHT30;53139;45.576;5.304;2023-04-03T18:16:57;7.69;76.22
66337;SHT30;53139;45.576;5.304;2023-04-03T18:19:57;7.65;76.02
66337;SHT30;53139;45.576;5.304;2023-04-03T18:22:58;7.58;75.92
66337;SHT30;53139;45.576;5.304;2023-04-03T18:25:59;7.57;75.27
66337;SHT30;53139;45.576;5.304;2023-04-03T18:29:03;7.48;75.94
66337;SHT30;53139;45.576;5.304;2023-04-03T18:32:06;7.47;75.05
66337;SHT30;53139;45.576;5.304;2023-04-03T18:35:07;7.35;75.86
66337;SHT30;53139;45.576;5.304;2023-04-03T18:38:08;7.50;74.11
66337;SHT30;53139;45.576;5.304;2023-04-03T18:41:14;7.28;76.11
66337;SHT30;53139;45.576;5.304;2023-04-03T18:44:23;7.23;75.57
66337;SHT30;53139;45.576;5.304;2023-04-03T18:47:26;7.10;76.37
66337;SHT30;53139;45.576;5.304;2023-04-03T18:50:31;7.07;76.62
66337;SHT30;53139;45.576;5.304;2023-04-03T18:53:31;7.12;75.68
66337;SHT30;53139;45.576;5.304;2023-04-03T18:56:50;6.96;76.53
66337;SHT30;53139;45.576;5.304;2023-04-03T19:00:21;6.99;75.89
66337;SHT30;53139;45.576;5.304;2023-04-03T19:03:22;6.97;76.10
66337;SHT30;53139;45.576;5.304;2023-04-03T19:06:22;6.86;77.40
66337;SHT30;53139;45.576;5.304;2023-04-03T19:09:24;6.86;76.66
66337;SHT30;53139;45.576;5.304;2023-04-03T19:12:25;6.86;76.88
66337;SHT30;53139;45.576;5.304;2023-04-03T19:15:26;6.78;78.03
66337;SHT30;53139;45.576;5.304;2023-04-03T19:18:27;6.79;77.63
66337;SHT30;53139;45.576;5.304;2023-04-03T19:21:28;6.81;76.81
66337;SHT30;53139;45.576;5.304;2023-04-03T19:24:32;6.76;77.16
66337;SHT30;53139;45.576;5.304;2023-04-03T19:27:32;6.74;77.36
66337;SHT30;53139;45.576;5.304;2023-04-03T19:30:33;6.71;78.21
66337;SHT30;53139;45.576;5.304;2023-04-03T19:33:34;6.74;77.25
66337;SHT30;53139;45.576;5.304;2023-04-03T19:36:35;6.74;76.89
66337;SHT30;53139;45.576;5.304;2023-04-03T19:39:37;6.69;77.39
66337;SHT30;53139;45.576;5.304;2023-04-03T19:42:37;6.76;76.05
66337;SHT30;53139;45.576;5.304;2023-04-03T19:45:42;6.69;77.42
66337;SHT30;53139;45.576;5.304;2023-04-03T19:48:45;6.64;78.33
66337;SHT30;53139;45.576;5.304;2023-04-03T19:51:46;6.61;77.38
66337;SHT30;53139;45.576;5.304;2023-04-03T19:54:46;6.57;78.03
66337;SHT30;53139;45.576;5.304;2023-04-03T19:57:47;6.55;77.16
66337;SHT30;53139;45.576;5.304;2023-04-03T20:00:47;6.52;76.70
66337;SHT30;53139;45.576;5.304;2023-04-03T20:03:48;6.42;77.49
66337;SHT30;53139;45.576;5.304;2023-04-03T20:06:49;6.31;77.98
66337;SHT30;53139;45.576;5.304;2023-04-03T20:09:49;6.30;78.13
66337;SHT30;53139;45.576;5.304;2023-04-03T20:12:50;6.31;77.65
66337;SHT30;53139;45.576;5.304;2023-04-03T20:15:50;6.27;77.81
66337;SHT30;53139;45.576;5.304;2023-04-03T20:18:51;6.26;78.19
66337;SHT30;53139;45.576;5.304;2023-04-03T20:21:54;6.29;76.95
66337;SHT30;53139;45.576;5.304;2023-04-03T20:24:55;6.16;78.26
66337;SHT30;53139;45.576;5.304;2023-04-03T20:27:55;6.21;77.56
66337;SHT30;53139;45.576;5.304;2023-04-03T20:30:56;6.05;78.72
66337;SHT30;53139;45.576;5.304;2023-04-03T20:33:57;6.02;78.44
66337;SHT30;53139;45.576;5.304;2023-04-03T20:36:57;5.86;78.99
66337;SHT30;53139;45.576;5.304;2023-04-03T20:39:58;5.59;79.99
66337;SHT30;53139;45.576;5.304;2023-04-03T20:43:00;5.26;81.37
66337;SHT30;53139;45.576;5.304;2023-04-03T20:46:02;5.26;81.75
66337;SHT30;53139;45.576;5.304;2023-04-03T20:49:03;5.12;82.35
66337;SHT30;53139;45.576;5.304;2023-04-03T20:52:04;4.82;82.65
66337;SHT30;53139;45.576;5.304;2023-04-03T20:55:05;4.82;83.81
66337;SHT30;53139;45.576;5.304;2023-04-03T20:58:06;4.37;86.95
66337;SHT30;53139;45.576;5.304;2023-04-03T21:01:21;4.47;85.20
66337;SHT30;53139;45.576;5.304;2023-04-03T21:21:42;3.92;85.08
66337;SHT30;53139;45.576;5.304;2023-04-03T21:24:45;3.60;86.44
66337;SHT30;53139;45.576;5.304;2023-04-03T21:27:45;3.48;87.37
66337;SHT30;53139;45.576;5.304;2023-04-03T21:30:45;3.30;88.88
66337;SHT30;53139;45.576;5.304;2023-04-03T21:33:45;3.02;89.26
66337;SHT30;53139;45.576;5.304;2023-04-03T21:36:46;3.00;88.48
66337;SHT30;53139;45.576;5.304;2023-04-03T21:39:48;2.96;89.42
66337;SHT30;53139;45.576;5.304;2023-04-03T21:42:53;3.37;87.54
66337;SHT30;53139;45.576;5.304;2023-04-03T21:45:54;3.85;85.03
66337;SHT30;53139;45.576;5.304;2023-04-03T21:48:55;3.40;86.39
66337;SHT30;53139;45.576;5.304;2023-04-03T21:51:55;3.23;87.60
66337;SHT30;53139;45.576;5.304;2023-04-03T21:54:56;3.09;87.83
66337;SHT30;53139;45.576;5.304;2023-04-03T21:57:56;3.06;87.84
66337;SHT30;53139;45.576;5.304;2023-04-03T22:01:07;2.77;88.99
66337;SHT30;53139;45.576;5.304;2023-04-03T22:04:08;2.75;89.45
66337;SHT30;53139;45.576;5.304;2023-04-03T22:07:08;2.53;89.90
66337;SHT30;53139;45.576;5.304;2023-04-03T22:10:08;2.44;89.73
66337;SHT30;53139;45.576;5.304;2023-04-03T22:13:09;2.57;89.40
66337;SHT30;53139;45.576;5.304;2023-04-03T22:16:10;2.17;90.15
66337;SHT30;53139;45.576;5.304;2023-04-03T22:19:14;2.13;90.49
66337;SHT30;53139;45.576;5.304;2023-04-03T22:22:14;2.30;91.01
66337;SHT30;53139;45.576;5.304;2023-04-03T22:25:15;2.36;90.76
66337;SHT30;53139;45.576;5.304;2023-04-03T22:28:15;2.15;91.40
66337;SHT30;53139;45.576;5.304;2023-04-03T22:31:16;2.19;92.01